sensor_id;sensor_type;location;lat;lon;timestamp;P1;durP1;ratioP1;P2;durP2;ratioP2
37323;SDS011;23205;49.986;18.950;2022-11-06T00:02:57;62.45;;;30.75;;
37323;SDS011;23205;49.986;18.950;2022-11-06T00:07:59;54.83;;;23.00;;
37323;SDS011;23205;49.986;18.950;2022-11-06T00:12:59;50.40;;;22.23;;
37323;SDS011;23205;49.986;18.950;2022-11-06T00:18:00;46.13;;;19.80;;
37323;SDS011;23205;49.986;18.950;2022-11-06T00:23:01;66.78;;;27.30;;
37323;SDS011;23205;49.986;18.950;2022-11-06T00:28:02;59.70;;;25.67;;
37323;SDS011;23205;49.986;18.950;2022-11-06T00:33:03;52.60;;;23.98;;
37323;SDS011;23205;49.986;18.950;2022-11-06T00:38:03;40.20;;;16.67;;
37323;SDS011;23205;49.986;18.950;2022-11-06T00:43:05;41.60;;;17.55;;
37323;SDS011;23205;49.986;18.950;2022-11-06T00:48:05;46.00;;;21.08;;
37323;SDS011;23205;49.986;18.950;2022-11-06T00:53:06;47.90;;;20.63;;
37323;SDS011;23205;49.986;18.950;2022-11-06T00:58:08;56.78;;;27.55;;
37323;SDS011;23205;49.986;18.950;2022-11-06T01:03:08;70.85;;;35.15;;
37323;SDS011;23205;49.986;18.950;2022-11-06T01:08:09;71.30;;;31.83;;
37323;SDS011;23205;49.986;18.950;2022-11-06T01:13:10;60.47;;;28.50;;
37323;SDS011;23205;49.986;18.950;2022-11-06T01:18:10;61.53;;;29.75;;
37323;SDS011;23205;49.986;18.950;2022-11-06T01:23:11;77.57;;;35.40;;
37323;SDS011;23205;49.986;18.950;2022-11-06T01:28:12;71.95;;;32.35;;
37323;SDS011;23205;49.986;18.950;2022-11-06T01:33:12;71.28;;;34.45;;
37323;SDS011;23205;49.986;18.950;2022-11-06T01:38:13;89.07;;;41.63;;
37323;SDS011;23205;49.986;18.950;2022-11-06T01:43:25;83.50;;;39.35;;
37323;SDS011;23205;49.986;18.950;2022-11-06T01:49:00;81.35;;;38.28;;
37323;SDS011;23205;49.986;18.950;2022-11-06T01:54:05;61.75;;;32.08;;
37323;SDS011;23205;49.986;18.950;2022-11-06T01:59:08;74.05;;;35.80;;
37323;SDS011;23205;49.986;18.950;2022-11-06T02:09:18;45.85;;;20.20;;
37323;SDS011;23205;49.986;18.950;2022-11-06T02:40:36;49.63;;;25.77;;
37323;SDS011;23205;49.986;18.950;2022-11-06T02:45:46;40.25;;;18.45;;
37323;SDS011;23205;49.986;18.950;2022-11-06T02:50:51;45.63;;;27.08;;
37323;SDS011;23205;49.986;18.950;2022-11-06T02:55:57;41.28;;;20.15;;
37323;SDS011;23205;49.986;18.950;2022-11-06T03:01:06;39.78;;;18.65;;
37323;SDS011;23205;49.986;18.950;2022-11-06T03:11:35;61.13;;;32.17;;
37323;SDS011;23205;49.986;18.950;2022-11-06T03:22:08;63.08;;;32.25;;
37323;SDS011;23205;49.986;18.950;2022-11-06T03:27:48;49.03;;;23.70;;
37323;SDS011;23205;49.986;18.950;2022-11-06T03:32:57;45.35;;;20.45;;
37323;SDS011;23205;49.986;18.950;2022-11-06T03:38:13;52.13;;;28.50;;
37323;SDS011;23205;49.986;18.950;2022-11-06T03:43:21;50.67;;;25.42;;
37323;SDS011;23205;49.986;18.950;2022-11-06T03:53:34;57.33;;;26.40;;
37323;SDS011;23205;49.986;18.950;2022-11-06T03:58:40;48.28;;;25.20;;
37323;SDS011;23205;49.986;18.950;2022-11-06T04:03:51;51.38;;;26.33;;
37323;SDS011;23205;49.986;18.950;2022-11-06T04:08:57;62.13;;;31.10;;
37323;SDS011;23205;49.986;18.950;2022-11-06T04:14:19;61.80;;;27.13;;
37323;SDS011;23205;49.986;18.950;2022-11-06T04:19:24;48.97;;;23.40;;
37323;SDS011;23205;49.986;18.950;2022-11-06T04:35:20;42.80;;;21.35;;
37323;SDS011;23205;49.986;18.950;2022-11-06T04:40:52;56.78;;;25.77;;
37323;SDS011;23205;49.986;18.950;2022-11-06T04:51:09;46.50;;;21.92;;
37323;SDS011;23205;49.986;18.950;2022-11-06T04:56:12;40.67;;;20.95;;
37323;SDS011;23205;49.986;18.950;2022-11-06T05:01:20;44.55;;;21.02;;
37323;SDS011;23205;49.986;18.950;2022-11-06T05:06:20;59.90;;;24.58;;
37323;SDS011;23205;49.986;18.950;2022-11-06T05:11:21;59.95;;;25.50;;
37323;SDS011;23205;49.986;18.950;2022-11-06T05:16:22;85.72;;;26.00;;
37323;SDS011;23205;49.986;18.950;2022-11-06T05:21:23;99.97;;;29.73;;
37323;SDS011;23205;49.986;18.950;2022-11-06T05:26:42;92.60;;;23.95;;
37323;SDS011;23205;49.986;18.950;2022-11-06T05:31:43;51.78;;;23.10;;
37323;SDS011;23205;49.986;18.950;2022-11-06T05:36:43;70.65;;;22.83;;
37323;SDS011;23205;49.986;18.950;2022-11-06T05:41:44;63.85;;;23.35;;
37323;SDS011;23205;49.986;18.950;2022-11-06T05:46:45;49.00;;;21.75;;
37323;SDS011;23205;49.986;18.950;2022-11-06T05:51:46;97.05;;;25.85;;
37323;SDS011;23205;49.986;18.950;2022-11-06T05:56:47;114.57;;;25.08;;
37323;SDS011;23205;49.986;18.950;2022-11-06T06:01:47;133.43;;;27.00;;
37323;SDS011;23205;49.986;18.950;2022-11-06T06:06:48;95.70;;;26.00;;
37323;SDS011;23205;49.986;18.950;2022-11-06T06:11:49;77.03;;;28.55;;
37323;SDS011;23205;49.986;18.950;2022-11-06T06:16:51;103.55;;;28.85;;
37323;SDS011;23205;49.986;18.950;2022-11-06T06:21:52;92.68;;;28.60;;
37323;SDS011;23205;49.986;18.950;2022-11-06T06:26:52;62.67;;;24.27;;
37323;SDS011;23205;49.986;18.950;2022-11-06T06:31:53;124.13;;;26.42;;
37323;SDS011;23205;49.986;18.950;2022-11-06T06:36:54;65.20;;;26.48;;
37323;SDS011;23205;49.986;18.950;2022-11-06T06:41:55;64.65;;;25.45;;
37323;SDS011;23205;49.986;18.950;2022-11-06T06:46:56;68.55;;;24.42;;
37323;SDS011;23205;49.986;18.950;2022-11-06T06:51:56;61.40;;;24.95;;
37323;SDS011;23205;49.986;18.950;2022-11-06T06:56:57;58.05;;;26.48;;
37323;SDS011;23205;49.986;18.950;2022-11-06T07:02:00;53.75;;;21.65;;
37323;SDS011;23205;49.986;18.950;2022-11-06T07:07:01;57.83;;;25.35;;
37323;SDS011;23205;49.986;18.950;2022-11-06T07:12:02;82.68;;;25.77;;
37323;SDS011;23205;49.986;18.950;2022-11-06T07:17:03;73.20;;;31.60;;
37323;SDS011;23205;49.986;18.950;2022-11-06T07:22:03;132.43;;;34.72;;
37323;SDS011;23205;49.986;18.950;2022-11-06T07:27:04;82.45;;;32.55;;
37323;SDS011;23205;49.986;18.950;2022-11-06T07:32:07;93.43;;;31.95;;
37323;SDS011;23205;49.986;18.950;2022-11-06T07:37:08;89.43;;;27.77;;
37323;SDS011;23205;49.986;18.950;2022-11-06T07:42:09;101.75;;;26.63;;
37323;SDS011;23205;49.986;18.950;2022-11-06T07:47:10;51.80;;;21.73;;
37323;SDS011;23205;49.986;18.950;2022-11-06T07:52:11;69.22;;;25.23;;
37323;SDS011;23205;49.986;18.950;2022-11-06T07:57:12;88.28;;;25.27;;
37323;SDS011;23205;49.986;18.950;2022-11-06T08:02:13;121.68;;;24.67;;
37323;SDS011;23205;49.986;18.950;2022-11-06T08:07:14;97.68;;;26.13;;
37323;SDS011;23205;49.986;18.950;2022-11-06T08:12:15;159.20;;;28.50;;
37323;SDS011;23205;49.986;18.950;2022-11-06T08:17:16;76.10;;;26.08;;
37323;SDS011;23205;49.986;18.950;2022-11-06T08:22:16;103.38;;;23.13;;
37323;SDS011;23205;49.986;18.950;2022-11-06T08:27:18;70.60;;;22.02;;
37323;SDS011;23205;49.986;18.950;2022-11-06T08:32:18;58.75;;;23.50;;
37323;SDS011;23205;49.986;18.950;2022-11-06T08:37:19;112.28;;;27.27;;
37323;SDS011;23205;49.986;18.950;2022-11-06T08:42:20;170.18;;;30.80;;
37323;SDS011;23205;49.986;18.950;2022-11-06T08:47:21;122.97;;;32.28;;
37323;SDS011;23205;49.986;18.950;2022-11-06T08:52:24;120.05;;;35.83;;
37323;SDS011;23205;49.986;18.950;2022-11-06T08:57:26;110.78;;;38.05;;
37323;SDS011;23205;49.986;18.950;2022-11-06T09:02:27;119.32;;;44.50;;
37323;SDS011;23205;49.986;18.950;2022-11-06T09:07:28;110.25;;;44.60;;
37323;SDS011;23205;49.986;18.950;2022-11-06T09:12:28;74.38;;;29.73;;
37323;SDS011;23205;49.986;18.950;2022-11-06T09:17:29;85.63;;;34.60;;
37323;SDS011;23205;49.986;18.950;2022-11-06T09:22:31;94.93;;;38.22;;
37323;SDS011;23205;49.986;18.950;2022-11-06T09:27:32;61.22;;;25.27;;
37323;SDS011;23205;49.986;18.950;2022-11-06T09:32:50;129.73;;;46.80;;
37323;SDS011;23205;49.986;18.950;2022-11-06T09:38:06;54.35;;;24.15;;
37323;SDS011;23205;49.986;18.950;2022-11-06T09:48:37;47.65;;;22.42;;
37323;SDS011;23205;49.986;18.950;2022-11-06T09:59:16;42.88;;;19.23;;
37323;SDS011;23205;49.986;18.950;2022-11-06T10:04:29;60.20;;;24.58;;
37323;SDS011;23205;49.986;18.950;2022-11-06T10:09:46;34.33;;;15.27;;
37323;SDS011;23205;49.986;18.950;2022-11-06T10:15:30;33.15;;;17.48;;
37323;SDS011;23205;49.986;18.950;2022-11-06T10:20:16;34.90;;;16.88;;
37323;SDS011;23205;49.986;18.950;2022-11-06T10:25:20;33.60;;;15.50;;
37323;SDS011;23205;49.986;18.950;2022-11-06T10:30:35;31.90;;;15.18;;
37323;SDS011;23205;49.986;18.950;2022-11-06T10:36:04;33.80;;;17.40;;
37323;SDS011;23205;49.986;18.950;2022-11-06T10:41:13;31.10;;;16.92;;
37323;SDS011;23205;49.986;18.950;2022-11-06T10:52:09;39.50;;;21.40;;
37323;SDS011;23205;49.986;18.950;2022-11-06T10:57:48;41.10;;;21.02;;
37323;SDS011;23205;49.986;18.950;2022-11-06T11:03:10;49.17;;;25.23;;
37323;SDS011;23205;49.986;18.950;2022-11-06T11:08:51;59.15;;;31.65;;
37323;SDS011;23205;49.986;18.950;2022-11-06T11:18:57;52.85;;;29.35;;
37323;SDS011;23205;49.986;18.950;2022-11-06T11:24:34;45.20;;;23.98;;
37323;SDS011;23205;49.986;18.950;2022-11-06T11:29:43;32.38;;;16.60;;
37323;SDS011;23205;49.986;18.950;2022-11-06T11:34:53;38.15;;;19.70;;
37323;SDS011;23205;49.986;18.950;2022-11-06T11:40:17;88.28;;;54.08;;
37323;SDS011;23205;49.986;18.950;2022-11-06T11:50:35;34.33;;;18.88;;
37323;SDS011;23205;49.986;18.950;2022-11-06T11:55:38;30.80;;;16.75;;
37323;SDS011;23205;49.986;18.950;2022-11-06T12:00:48;32.90;;;17.05;;
37323;SDS011;23205;49.986;18.950;2022-11-06T12:06:03;18.80;;;10.35;;
37323;SDS011;23205;49.986;18.950;2022-11-06T12:11:08;37.35;;;14.80;;
37323;SDS011;23205;49.986;18.950;2022-11-06T12:16:15;24.02;;;13.25;;
37323;SDS011;23205;49.986;18.950;2022-11-06T12:31:36;22.45;;;13.00;;
37323;SDS011;23205;49.986;18.950;2022-11-06T12:36:42;22.50;;;13.27;;
37323;SDS011;23205;49.986;18.950;2022-11-06T12:41:56;25.10;;;12.25;;
37323;SDS011;23205;49.986;18.950;2022-11-06T13:18:47;16.13;;;8.48;;
37323;SDS011;23205;49.986;18.950;2022-11-06T13:23:57;18.42;;;9.02;;
37323;SDS011;23205;49.986;18.950;2022-11-06T13:29:07;15.85;;;7.93;;
37323;SDS011;23205;49.986;18.950;2022-11-06T13:34:18;16.98;;;8.65;;
37323;SDS011;23205;49.986;18.950;2022-11-06T13:39:43;20.45;;;10.25;;
37323;SDS011;23205;49.986;18.950;2022-11-06T13:44:49;20.65;;;10.80;;
37323;SDS011;23205;49.986;18.950;2022-11-06T14:00:10;22.50;;;10.73;;
37323;SDS011;23205;49.986;18.950;2022-11-06T14:10:46;23.17;;;9.48;;
37323;SDS011;23205;49.986;18.950;2022-11-06T14:16:02;19.55;;;9.32;;
37323;SDS011;23205;49.986;18.950;2022-11-06T14:21:25;15.98;;;8.20;;
37323;SDS011;23205;49.986;18.950;2022-11-06T14:26:43;18.83;;;7.55;;
37323;SDS011;23205;49.986;18.950;2022-11-06T14:42:29;30.13;;;15.52;;
37323;SDS011;23205;49.986;18.950;2022-11-06T14:47:40;17.90;;;8.48;;
37323;SDS011;23205;49.986;18.950;2022-11-06T14:53:05;21.73;;;10.13;;
37323;SDS011;23205;49.986;18.950;2022-11-06T14:58:25;23.88;;;9.00;;
37323;SDS011;23205;49.986;18.950;2022-11-06T15:13:51;28.08;;;11.82;;
37323;SDS011;23205;49.986;18.950;2022-11-06T15:18:52;30.85;;;14.35;;
37323;SDS011;23205;49.986;18.950;2022-11-06T15:24:02;34.35;;;16.15;;
37323;SDS011;23205;49.986;18.950;2022-11-06T15:34:19;33.30;;;14.63;;
37323;SDS011;23205;49.986;18.950;2022-11-06T15:44:29;35.30;;;15.18;;
37323;SDS011;23205;49.986;18.950;2022-11-06T15:49:29;32.20;;;14.80;;
37323;SDS011;23205;49.986;18.950;2022-11-06T15:59:38;33.75;;;14.45;;
37323;SDS011;23205;49.986;18.950;2022-11-06T16:04:39;39.50;;;18.98;;
37323;SDS011;23205;49.986;18.950;2022-11-06T16:09:41;38.53;;;18.35;;
37323;SDS011;23205;49.986;18.950;2022-11-06T16:14:43;40.15;;;20.05;;
37323;SDS011;23205;49.986;18.950;2022-11-06T16:19:44;43.15;;;19.52;;
37323;SDS011;23205;49.986;18.950;2022-11-06T16:24:50;41.38;;;18.55;;
37323;SDS011;23205;49.986;18.950;2022-11-06T16:29:57;38.10;;;18.17;;
37323;SDS011;23205;49.986;18.950;2022-11-06T16:35:02;42.63;;;18.08;;
37323;SDS011;23205;49.986;18.950;2022-11-06T16:45:53;45.50;;;21.10;;
37323;SDS011;23205;49.986;18.950;2022-11-06T16:51:01;52.95;;;22.65;;
37323;SDS011;23205;49.986;18.950;2022-11-06T16:56:05;56.67;;;26.35;;
37323;SDS011;23205;49.986;18.950;2022-11-06T17:01:07;74.63;;;34.42;;
37323;SDS011;23205;49.986;18.950;2022-11-06T17:06:14;64.43;;;31.85;;
37323;SDS011;23205;49.986;18.950;2022-11-06T17:11:20;136.60;;;59.20;;
37323;SDS011;23205;49.986;18.950;2022-11-06T17:16:26;132.10;;;61.53;;
37323;SDS011;23205;49.986;18.950;2022-11-06T17:21:27;103.88;;;48.60;;
37323;SDS011;23205;49.986;18.950;2022-11-06T17:26:29;165.77;;;72.22;;
37323;SDS011;23205;49.986;18.950;2022-11-06T17:31:31;88.82;;;40.33;;
37323;SDS011;23205;49.986;18.950;2022-11-06T17:36:38;52.75;;;24.73;;
37323;SDS011;23205;49.986;18.950;2022-11-06T17:41:39;49.75;;;22.65;;
37323;SDS011;23205;49.986;18.950;2022-11-06T17:46:44;45.40;;;21.38;;
37323;SDS011;23205;49.986;18.950;2022-11-06T17:51:46;46.13;;;21.95;;
37323;SDS011;23205;49.986;18.950;2022-11-06T17:56:55;45.45;;;20.40;;
37323;SDS011;23205;49.986;18.950;2022-11-06T18:01:56;68.47;;;29.17;;
37323;SDS011;23205;49.986;18.950;2022-11-06T18:06:57;51.85;;;18.90;;
37323;SDS011;23205;49.986;18.950;2022-11-06T18:11:59;44.10;;;20.02;;
37323;SDS011;23205;49.986;18.950;2022-11-06T18:16:59;50.83;;;19.92;;
37323;SDS011;23205;49.986;18.950;2022-11-06T18:22:00;63.20;;;24.90;;
37323;SDS011;23205;49.986;18.950;2022-11-06T18:27:03;51.60;;;19.58;;
37323;SDS011;23205;49.986;18.950;2022-11-06T18:32:14;63.03;;;24.70;;
37323;SDS011;23205;49.986;18.950;2022-11-06T18:37:17;62.92;;;25.88;;
37323;SDS011;23205;49.986;18.950;2022-11-06T18:42:18;73.93;;;32.00;;
37323;SDS011;23205;49.986;18.950;2022-11-06T18:47:19;68.07;;;33.10;;
37323;SDS011;23205;49.986;18.950;2022-11-06T18:52:20;67.82;;;31.27;;
37323;SDS011;23205;49.986;18.950;2022-11-06T18:57:20;54.50;;;25.77;;
37323;SDS011;23205;49.986;18.950;2022-11-06T19:02:22;64.47;;;27.63;;
37323;SDS011;23205;49.986;18.950;2022-11-06T19:07:26;68.30;;;28.92;;
37323;SDS011;23205;49.986;18.950;2022-11-06T19:12:27;81.35;;;36.80;;
37323;SDS011;23205;49.986;18.950;2022-11-06T19:17:28;51.22;;;22.33;;
37323;SDS011;23205;49.986;18.950;2022-11-06T19:22:29;78.88;;;31.05;;
37323;SDS011;23205;49.986;18.950;2022-11-06T19:27:30;84.15;;;34.72;;
37323;SDS011;23205;49.986;18.950;2022-11-06T19:32:31;86.25;;;36.25;;
37323;SDS011;23205;49.986;18.950;2022-11-06T19:37:32;83.72;;;35.83;;
37323;SDS011;23205;49.986;18.950;2022-11-06T19:42:33;79.70;;;33.30;;
37323;SDS011;23205;49.986;18.950;2022-11-06T19:47:33;78.43;;;35.10;;
37323;SDS011;23205;49.986;18.950;2022-11-06T19:52:34;82.43;;;39.55;;
37323;SDS011;23205;49.986;18.950;2022-11-06T19:57:35;71.00;;;36.10;;
37323;SDS011;23205;49.986;18.950;2022-11-06T20:02:36;84.88;;;40.38;;
37323;SDS011;23205;49.986;18.950;2022-11-06T20:07:37;76.88;;;33.65;;
37323;SDS011;23205;49.986;18.950;2022-11-06T20:12:41;60.10;;;26.83;;
37323;SDS011;23205;49.986;18.950;2022-11-06T20:17:42;69.15;;;30.20;;
37323;SDS011;23205;49.986;18.950;2022-11-06T20:22:42;68.47;;;31.38;;
37323;SDS011;23205;49.986;18.950;2022-11-06T20:27:43;56.25;;;26.70;;
37323;SDS011;23205;49.986;18.950;2022-11-06T20:32:44;64.65;;;29.42;;
37323;SDS011;23205;49.986;18.950;2022-11-06T20:37:45;66.40;;;31.70;;
37323;SDS011;23205;49.986;18.950;2022-11-06T20:42:46;64.32;;;32.80;;
37323;SDS011;23205;49.986;18.950;2022-11-06T20:47:47;65.63;;;29.15;;
37323;SDS011;23205;49.986;18.950;2022-11-06T20:52:47;55.83;;;25.95;;
37323;SDS011;23205;49.986;18.950;2022-11-06T20:57:48;60.75;;;29.35;;
37323;SDS011;23205;49.986;18.950;2022-11-06T21:02:49;57.00;;;24.73;;
37323;SDS011;23205;49.986;18.950;2022-11-06T21:07:50;54.20;;;23.85;;
37323;SDS011;23205;49.986;18.950;2022-11-06T21:12:51;48.95;;;25.27;;
37323;SDS011;23205;49.986;18.950;2022-11-06T21:17:52;49.03;;;23.98;;
37323;SDS011;23205;49.986;18.950;2022-11-06T21:22:52;55.28;;;26.33;;
37323;SDS011;23205;49.986;18.950;2022-11-06T21:27:53;54.83;;;24.77;;
37323;SDS011;23205;49.986;18.950;2022-11-06T21:32:54;49.58;;;25.05;;
37323;SDS011;23205;49.986;18.950;2022-11-06T21:37:54;49.67;;;23.15;;
37323;SDS011;23205;49.986;18.950;2022-11-06T21:42:56;48.42;;;22.98;;
37323;SDS011;23205;49.986;18.950;2022-11-06T21:47:57;47.47;;;23.80;;
37323;SDS011;23205;49.986;18.950;2022-11-06T21:52:58;46.92;;;23.08;;
37323;SDS011;23205;49.986;18.950;2022-11-06T21:58:17;57.38;;;25.67;;
37323;SDS011;23205;49.986;18.950;2022-11-06T22:03:18;52.85;;;22.83;;
37323;SDS011;23205;49.986;18.950;2022-11-06T22:08:19;54.65;;;23.38;;
37323;SDS011;23205;49.986;18.950;2022-11-06T22:13:19;52.60;;;24.98;;
37323;SDS011;23205;49.986;18.950;2022-11-06T22:18:20;54.83;;;25.83;;
37323;SDS011;23205;49.986;18.950;2022-11-06T22:23:21;46.38;;;21.58;;
37323;SDS011;23205;49.986;18.950;2022-11-06T22:28:22;49.88;;;24.25;;
37323;SDS011;23205;49.986;18.950;2022-11-06T22:33:22;47.60;;;22.23;;
37323;SDS011;23205;49.986;18.950;2022-11-06T22:38:24;48.95;;;22.30;;
37323;SDS011;23205;49.986;18.950;2022-11-06T22:43:26;51.90;;;24.45;;
37323;SDS011;23205;49.986;18.950;2022-11-06T22:48:28;59.05;;;25.42;;
37323;SDS011;23205;49.986;18.950;2022-11-06T22:53:30;49.80;;;25.02;;
37323;SDS011;23205;49.986;18.950;2022-11-06T22:58:32;50.50;;;27.88;;
37323;SDS011;23205;49.986;18.950;2022-11-06T23:03:33;55.15;;;26.80;;
37323;SDS011;23205;49.986;18.950;2022-11-06T23:08:35;56.97;;;26.63;;
37323;SDS011;23205;49.986;18.950;2022-11-06T23:13:37;55.00;;;26.50;;
37323;SDS011;23205;49.986;18.950;2022-11-06T23:18:38;59.30;;;27.38;;
37323;SDS011;23205;49.986;18.950;2022-11-06T23:23:39;59.30;;;28.20;;
37323;SDS011;23205;49.986;18.950;2022-11-06T23:28:41;60.75;;;27.67;;
37323;SDS011;23205;49.986;18.950;2022-11-06T23:33:43;60.97;;;27.48;;
37323;SDS011;23205;49.986;18.950;2022-11-06T23:38:43;53.92;;;26.42;;
37323;SDS011;23205;49.986;18.950;2022-11-06T23:43:48;59.83;;;29.00;;
37323;SDS011;23205;49.986;18.950;2022-11-06T23:48:49;55.47;;;27.45;;
37323;SDS011;23205;49.986;18.950;2022-11-06T23:53:50;58.03;;;27.63;;
37323;SDS011;23205;49.986;18.950;2022-11-06T23:58:52;51.50;;;25.13;;
